Las Vegas, Nevada (DRI) Weather observations

Data are for observation ending at time listed.
 Day   Time    Ave.   Ave.  Ave.  Vector   Max.   Stn.    Total    Solar   Ave.  
  of    of     Air    Rel.  Wind   Wind    Wind   Baro.  Precip.   Rad.    Soil  
Year   Day     Temp.  Hum.  Speed  Dir.    Gust   Pres.                    Temp. 
2014   (PST)    F      %     mph   deg.    mph     mb.     in.     W/m2     F   
------------------------------------------------------------------------------
 273    3:20   67.7    36    0.5   182      2.1   941.3    0.00       0    84.3
 273    3:30   67.6    35    0.1    18      1.2   941.3    0.00       0    84.3
 273    3:40   68.5    33    0.7    21      2.9   941.3    0.00       0    84.1
 273    3:50   68.9    32    0.6     8      2.8   941.3    0.00       0    84.1
 273    4:00   68.9    31    0.2   354      2.5   941.4    0.00       0    83.9
 273    4:10   68.8    32    0.1     2      1.5   941.4    0.00       0    83.8
 273    4:20   68.5    32    0.0    10      0.6   941.4    0.00       0    83.8
 273    4:30   67.9    33    0.0     0      0.0   941.4    0.00       0    83.7
 273    4:40   67.0    37    0.0     0      0.0   941.5    0.00       0    83.6
 273    4:50   66.0    40    0.4   171      2.3   941.4    0.00       0    83.5
 273    5:00   65.8    40    0.0     0      0.0   941.4    0.00       0    83.4
 273    5:10   65.8    39    0.0     0      0.0   941.6    0.00       0    83.3
 273    5:20   66.4    36    0.0     0      0.0   941.7    0.00       0    83.2
 273    5:30   67.3    33    0.0   348      0.5   941.7    0.00       3    83.2
 273    5:40   67.9    33    0.6   338      2.0   941.8    0.00       4    83.0
 273    5:50   67.7    33    0.2   356      1.8   941.8    0.00       9    83.0
 273    6:00   67.5    33    0.0     0      0.0   941.8    0.00      11    82.9
 273    6:10   67.4    34    0.0     0      0.0   941.8    0.00      16    82.8
 273    6:20   67.4    35    0.0     0      0.0   941.8    0.00      18    82.7
 273    6:30   67.2    37    0.0     0      0.0   942.0    0.00      18    82.6
 273    6:40   67.6    36    0.1    23      1.2   942.1    0.00      22    82.5
 273    6:50   68.1    35    0.0    16      1.3   942.2    0.00      25    82.4
 273    7:00   68.6    34    0.2    42      1.6   942.3    0.00      27    82.3
 273    7:10   68.6    35    0.0    53      0.7   942.4    0.00      34    82.2
 273    7:20   68.8    35    0.0    54      1.0   942.3    0.00      44    82.1
 273    7:30   69.0    34    0.3    58      2.6   942.3    0.00      46    82.1
 273    7:40   69.4    34    0.1    21      1.8   942.3    0.00      57    82.0
 273    7:50   69.8    33    0.1    53      0.9   942.2    0.00      64    81.9
 273    8:00   70.2    32    0.2    10      1.5   942.3    0.00      52    81.8
 273    8:10   70.8    32    0.6   189      2.5   942.4    0.00     328    81.8
 273    8:20   71.5    31    0.6   177      2.3   942.4    0.00     486    81.7
 273    8:30   72.2    30    0.7   167      2.6   942.5    0.00     523    81.6
 273    8:40   73.3    29    0.4   169      2.0   942.5    0.00     580    81.6
 273    8:50   74.7    28    0.3   164      2.4   942.5    0.00     611    81.5
 273    9:00   76.0    26    1.0   324      3.2   942.4    0.00     641    81.4
 273    9:10   76.6    25    0.8   300      3.8   942.4    0.00     656    81.4
 273    9:20   76.9    26    1.3   199      4.2   942.2    0.00     690    81.3
 273    9:30   77.2    25    1.3   291      4.2   942.1    0.00     719    81.2
 273    9:40   78.4    24    0.7    36      2.6   942.1    0.00     742    81.2
 273    9:50   78.8    24    1.3   187      4.0   941.9    0.00     761    81.1
 273   10:00   79.3    23    0.7   113      3.7   941.8    0.00     781    81.1
 273   10:10   80.0    23    0.7   349      2.8   941.7    0.00     799    81.1
 273   10:20   80.7    22    1.0    18      4.2   941.6    0.00     810    81.0
 273   10:30   80.4    23    1.2    44      4.5   941.4    0.00     826    81.0
 273   10:40   80.3    22    1.0    22      3.5   941.4    0.00     840    81.0
 273   10:50   80.7    22    1.4    41      4.6   941.2    0.00     853    81.0
 273   11:00   81.5    22    1.7    16      5.6   941.1    0.00     861    81.1
 273   11:10   81.7    21    2.1    18      5.2   940.9    0.00     866    81.2
 273   11:20   81.5    21    1.5    37      3.7   940.7    0.00     871    81.3
 273   11:30   81.9    21    2.2    44      4.9   940.5    0.00     875    81.4
 273   11:40   82.9    20    1.7     7      6.1   940.3    0.00     875    81.6
 273   11:50   83.5    20    1.4    56      4.7   940.2    0.00     874    81.7
 273   12:00   84.6    20    1.9    45      5.6   940.0    0.00     868    81.9
 273   12:10   83.4    20    3.6   175      8.1   939.8    0.00     865    82.2
 273   12:20   83.0    20    3.9   178      7.8   939.6    0.00     857    82.4
 273   12:30   84.1    19    1.5    44      4.9   939.3    0.00     848    82.6
 273   12:40   84.5    19    2.5   176      7.7   939.1    0.00     837    82.8
 273   12:50   85.1    18    1.6   193      4.6   938.8    0.00     825    83.1
 273   13:00   85.2    18    2.6   174      8.1   938.6    0.00     811    83.3
 273   13:10   85.8    17    1.5   250      3.5   938.4    0.00     795    83.6
 273   13:20   86.5    16    1.8    21      8.5   938.2    0.00     775    83.8
 273   13:30   87.4    16    1.6   125      6.4   937.9    0.00     757    84.1
 273   13:40   87.3    16    2.4    43      6.4   937.7    0.00     732    84.4
 273   13:50   86.9    16    1.9   171      5.3   937.6    0.00     708    84.6
 273   14:00   87.8    15    1.7    22      4.8   937.4    0.00     683    85.0
 273   14:10   87.5    15    1.9    26      5.9   937.2    0.00     656    85.3
 273   14:20   88.0    15    1.8    43      4.3   937.1    0.00     628    85.6
 273   14:30   89.1    15    1.6   175      6.9   937.0    0.00     600    85.8
 273   14:40   87.9    15    2.2    50      5.3   936.9    0.00     565    86.1
 273   14:50   87.2    15    2.3    45      5.8   936.7    0.00     532    86.3
 273   15:00   88.5    15    2.5    42      6.0   936.7    0.00     500    86.6
 273   15:10   87.8    15    2.3    44      5.8   936.6    0.00     465    86.9
 273   15:20   87.9    15    2.0    50      7.8   936.6    0.00     432    87.1
 273   15:30   87.9    15    2.5    46      6.9   936.5    0.00     394    87.4
 273   15:40   87.9    16    2.1    49      5.3   936.3    0.00     358    87.6
 273   15:50   88.3    15    1.7    51      4.5   936.3    0.00     321    87.8
 273   16:00   88.5    15    1.8    44      4.9   936.3    0.00     286    88.1
 273   16:10   88.9    15    1.3    45      4.9   936.3    0.00     249    88.3
 273   16:20   88.3    15    1.5    34      3.5   936.2    0.00     213    88.5
 273   16:30   88.0    16    1.6    42      4.2   936.2    0.00     176    88.6
 273   16:40   87.7    16    1.7    46      4.4   936.2    0.00     142    88.7
 273   16:50   86.5    17    1.7    47      4.2   936.1    0.00     108    88.9
 273   17:00   86.9    16    0.7    38      2.9   936.2    0.00      71    89.0
 273   17:10   86.0    18    0.6    39      2.4   936.2    0.00      23    89.1
 273   17:20   84.2    19    0.6    44      2.5   936.3    0.00      10    89.2
 273   17:30   83.4    19    1.8    55      5.1   936.4    0.00       4    89.2
 273   17:40   82.8    19    1.5    54      4.7   936.4    0.00       3    89.3
 273   17:50   82.5    20    1.3    46      7.5   936.3    0.00       3    89.4
 273   18:00   82.3    20    0.0    29      0.7   936.3    0.00       1    89.4
 273   18:10   82.1    20    0.1    74      1.3   936.3    0.00       1    89.5
 273   18:20   81.8    20    0.2    75      2.5   936.4    0.00       1    89.5
 273   18:30   81.7    20    1.1   359      3.6   936.3    0.00       1    89.5
 273   18:40   81.5    21    0.2    74      1.8   936.3    0.00       0    89.5
 273   18:50   81.1    21    0.4    48      2.6   936.4    0.00       0    89.5
 273   19:00   80.8    21    0.0     0      0.0   936.4    0.00       0    89.4
 273   19:10   80.0    23    0.0     0      0.0   936.5    0.00       0    89.4
 273   19:20   79.5    23    0.0     0      0.0   936.5    0.00       0    89.3
 273   19:30   79.1    24    0.0     0      0.0   936.4    0.00       0    89.3
 273   19:40   78.7    24    0.4   157      3.9   936.5    0.00       0    89.2
 273   19:50   79.2    24    0.1   177      1.2   936.6    0.00       0    89.2
 273   20:00   78.4    25    0.0     0      0.0   936.4    0.00       0    89.1
 273   20:10   77.4    27    0.0     0      0.0   936.5    0.00       0    89.0
 273   20:20   76.9    28    0.0     0      0.0   936.5    0.00       0    89.0
 273   20:30   76.9    27    0.0   246      0.3   936.6    0.00       0    88.8
 273   20:40   78.2    26    0.4   286      2.6   936.7    0.00       0    88.8
 273   20:50   78.8    25    1.6   238      3.3   936.6    0.00       0    88.7
 273   21:00   78.7    26    0.3   237      2.2   936.6    0.00       0    88.6
 273   21:10   78.1    26    0.3   181      1.3   936.7    0.00       0    88.5
 273   21:20   77.0    28    0.0     0      0.0   936.6    0.00       0    88.4
 273   21:30   75.8    30    0.0   176      0.7   936.6    0.00       0    88.4
 273   21:40   75.6    29    0.4   222      2.3   936.6    0.00       0    88.2
 273   21:50   75.5    29    0.0     0      0.0   936.5    0.00       0    88.1
 273   22:00   75.5    28    0.4    14      1.8   936.5    0.00       0    88.0
 273   22:10   75.6    29    0.0    25      0.5   936.5    0.00       0    87.9
 273   22:20   74.8    30    0.3   229      2.0   936.5    0.00       0    87.8
 273   22:30   74.7    28    1.1   206      2.9   936.4    0.00       0    87.7
 273   22:40   75.4    28    1.3   235      3.4   936.4    0.00       0    87.6
 273   22:50   75.6    28    0.3   281      2.5   936.3    0.00       0    87.5
 273   23:00   75.4    28    0.9   275      3.1   936.4    0.00       0    87.4
 273   23:10   75.1    28    0.7   256      3.2   936.4    0.00       0    87.3
 273   23:20   75.2    28    1.1   260      3.4   936.4    0.00       0    87.2
 273   23:30   75.1    28    0.3   257      2.1   936.5    0.00       0    87.1
 273   23:40   74.2    29    0.5   163      1.8   936.6    0.00       0    87.0
 273   23:50   73.4    30    0.0   135      0.1   936.5    0.00       0    86.9
 274    0:00   73.0    30    0.6   153      2.1   936.5    0.00       0    86.8
 274    0:10   72.5    30    0.5   189      2.1   936.6    0.00       0    86.7
 274    0:20   72.7    29    0.0     0      0.0   936.7    0.00       0    86.6
 274    0:30   72.3    30    0.0     0      0.0   936.7    0.00       0    86.5
 274    0:40   71.4    32    0.5   166      2.6   936.8    0.00       0    86.4
 274    0:50   71.1    32    0.0     0      0.0   936.8    0.00       0    86.3
 274    1:00   70.6    32    1.1   174      2.5   936.9    0.00       0    86.3
 274    1:10   70.5    32    0.2   175      1.3   936.9    0.00       0    86.2
 274    1:20   70.7    33    0.0     0      0.0   936.9    0.00       0    86.0
 274    1:30   70.6    31    0.9   168      2.1   936.9    0.00       0    85.9
 274    1:40   70.8    31    0.0     0      0.0   936.9    0.00       0    85.9
 274    1:50   70.2    32    0.0   139      0.9   936.8    0.00       0    85.7
 274    2:00   69.9    33    0.0     0      0.0   936.9    0.00       0    85.7
 274    2:10   69.6    35    0.7     5      2.3   936.9    0.00       0    85.6
 274    2:20   69.2    35    0.0     0      0.0   936.7    0.00       0    85.4
 274    2:30   68.6    37    0.0     0      0.0   936.7    0.00       0    85.4
 274    2:40   68.2    37    0.0     0      0.0   936.7    0.00       0    85.3
 274    2:50   68.5    38    0.5   348      3.0   936.8    0.00       0    85.2
 274    3:00   69.7    35    1.6   354      2.9   936.9    0.00       0    85.1
 274    3:10   69.6    34    1.3    16      3.3   937.1    0.00       0    85.0

Return to Las Vegas, Nevada graphs page.


Western Regional Climate Center,wrcc@dri.edu